Time;durP1;ratioP1;P1;durP2;ratioP2;P2;SDS_P1;SDS_P2;PMS_P1;PMS_P2;Temp;Humidity;BMP_temperature;BMP_pressure;BME280_temperature;BME280_humidity;BME280_pressure;Samples;Min_cycle;Max_cycle;Signal;HPM_P1;HPM_P2
2023/12/11 00:01:08;;;;;;;48.15;21.63;;;;;;;;;;5015913;28;20100;-58
2023/12/11 00:03:33;;;;;;;53.60;21.70;;;;;;;;;;4998493;28;20038;-58
2023/12/11 00:05:59;;;;;;;41.90;20.02;;;;;;;;;;5016082;28;20130;-59
2023/12/11 00:08:24;;;;;;;36.38;18.55;;;;;;;;;;5015955;28;20455;-58
2023/12/11 00:10:50;;;;;;;40.45;19.33;;;;;;;;;;5015704;28;20034;-62
2023/12/11 00:13:15;;;;;;;39.75;19.98;;;;;;;;;;4998814;28;20038;-63
2023/12/11 00:15:41;;;;;;;35.95;19.33;;;;;;;;;;4998067;28;20037;-64
2023/12/11 00:18:06;;;;;;;38.13;19.90;;;;;;;;;;5015838;28;20518;-64
2023/12/11 00:20:32;;;;;;;35.47;19.83;;;;;;;;;;5015654;28;20054;-60
2023/12/11 00:22:59;;;;;;;34.53;18.42;;;;;;;;;;4998323;28;20104;-60
2023/12/11 00:25:25;;;;;;;37.63;20.05;;;;;;;;;;4998189;28;20026;-60
2023/12/11 00:27:51;;;;;;;46.00;21.85;;;;;;;;;;4998165;28;20490;-60
2023/12/11 00:30:16;;;;;;;43.75;21.10;;;;;;;;;;5015579;28;20022;-60
2023/12/11 00:32:41;;;;;;;43.88;20.73;;;;;;;;;;4997859;28;20033;-60
2023/12/11 00:35:07;;;;;;;35.78;20.05;;;;;;;;;;5015683;28;20112;-60
2023/12/11 00:37:32;;;;;;;36.72;19.88;;;;;;;;;;4997555;28;20101;-60
2023/12/11 00:39:58;;;;;;;51.10;24.58;;;;;;;;;;5015324;28;20033;-60
2023/12/11 00:42:23;;;;;;;75.40;33.60;;;;;;;;;;5015659;28;20061;-60
2023/12/11 00:44:49;;;;;;;84.30;32.83;;;;;;;;;;5015587;28;20503;-60
2023/12/11 00:47:48;;;;;;;74.35;29.13;;;;;;;;;;5013226;23;20119;-63
2023/12/11 00:50:14;;;;;;;50.45;21.10;;;;;;;;;;5026297;23;20522;-60
2023/12/11 00:52:39;;;;;;;43.45;21.75;;;;;;;;;;5014799;28;20116;-61
2023/12/11 00:55:16;;;;;;;39.42;20.80;;;;;;;;;;5015084;28;20034;-61
2023/12/11 00:57:41;;;;;;;37.55;20.67;;;;;;;;;;5013581;28;20033;-61
2023/12/11 01:00:13;;;;;;;39.60;20.73;;;;;;;;;;5015343;28;20025;-61
2023/12/11 01:02:41;;;;;;;32.90;18.90;;;;;;;;;;5014811;28;20157;-61
2023/12/11 01:05:07;;;;;;;35.80;19.52;;;;;;;;;;5014812;28;20388;-61
2023/12/11 01:07:32;;;;;;;32.70;18.65;;;;;;;;;;5014757;28;20030;-60
2023/12/11 01:09:58;;;;;;;38.15;18.98;;;;;;;;;;5014604;28;20022;-61
2023/12/11 01:12:23;;;;;;;32.38;16.10;;;;;;;;;;5014514;28;20476;-61
2023/12/11 01:14:48;;;;;;;23.73;14.00;;;;;;;;;;5014728;28;20028;-61
2023/12/11 01:17:14;;;;;;;24.40;14.02;;;;;;;;;;5014709;28;20105;-61
2023/12/11 01:19:41;;;;;;;25.77;13.93;;;;;;;;;;4980643;28;20116;-60
2023/12/11 01:22:07;;;;;;;21.45;13.00;;;;;;;;;;5014582;28;20086;-61
2023/12/11 01:24:33;;;;;;;20.75;12.75;;;;;;;;;;5014824;28;20507;-61
2023/12/11 01:26:58;;;;;;;21.40;12.32;;;;;;;;;;5014343;28;20062;-61
2023/12/11 01:29:24;;;;;;;19.77;11.15;;;;;;;;;;5015022;28;20026;-60
2023/12/11 01:31:49;;;;;;;19.52;10.70;;;;;;;;;;4997347;28;20522;-60
2023/12/11 01:34:15;;;;;;;19.27;10.68;;;;;;;;;;5012957;28;20030;-60
2023/12/11 01:36:41;;;;;;;18.20;10.40;;;;;;;;;;5014957;28;20014;-60
2023/12/11 01:39:07;;;;;;;17.75;10.27;;;;;;;;;;5014182;28;20030;-61
2023/12/11 01:41:32;;;;;;;17.38;9.98;;;;;;;;;;5014196;28;20494;-60
2023/12/11 01:43:57;;;;;;;16.73;10.70;;;;;;;;;;5014495;28;20045;-61
2023/12/11 01:46:24;;;;;;;17.17;10.05;;;;;;;;;;5014215;28;20438;-61
2023/12/11 01:48:51;;;;;;;19.10;11.18;;;;;;;;;;5013413;28;20407;-60
2023/12/11 01:51:17;;;;;;;19.40;10.40;;;;;;;;;;5014009;28;20065;-59
2023/12/11 01:53:44;;;;;;;19.50;9.85;;;;;;;;;;5013921;28;20101;-59
2023/12/11 01:56:09;;;;;;;17.63;9.70;;;;;;;;;;5014064;28;20126;-59
2023/12/11 01:58:35;;;;;;;15.73;9.07;;;;;;;;;;5014208;28;20118;-58
2023/12/11 02:01:00;;;;;;;17.60;9.63;;;;;;;;;;5014346;28;20084;-58
2023/12/11 02:03:26;;;;;;;16.13;9.30;;;;;;;;;;4995609;28;20037;-58
2023/12/11 02:05:52;;;;;;;17.42;9.88;;;;;;;;;;5014060;28;20038;-60
2023/12/11 02:08:17;;;;;;;17.55;9.98;;;;;;;;;;4996185;28;20116;-60
2023/12/11 02:10:43;;;;;;;17.75;9.88;;;;;;;;;;5013718;28;20029;-59
2023/12/11 02:13:09;;;;;;;18.23;10.48;;;;;;;;;;4996342;28;20368;-60
2023/12/11 02:15:38;;;;;;;16.65;9.73;;;;;;;;;;5014543;28;20113;-59
2023/12/11 02:18:04;;;;;;;18.95;9.68;;;;;;;;;;4996220;28;20037;-60
2023/12/11 02:20:30;;;;;;;14.50;8.98;;;;;;;;;;5013647;28;20080;-59
2023/12/11 02:22:57;;;;;;;21.17;11.15;;;;;;;;;;5013441;28;20025;-59
2023/12/11 02:25:23;;;;;;;18.60;9.65;;;;;;;;;;5012306;28;20026;-59
2023/12/11 02:27:49;;;;;;;27.20;13.00;;;;;;;;;;5013900;28;20041;-59
2023/12/11 02:30:14;;;;;;;28.13;13.00;;;;;;;;;;5012563;28;20385;-59
2023/12/11 02:32:40;;;;;;;21.75;11.15;;;;;;;;;;5013987;28;20049;-59
2023/12/11 02:35:05;;;;;;;18.45;10.10;;;;;;;;;;5013645;28;20022;-59
2023/12/11 02:37:31;;;;;;;16.95;10.02;;;;;;;;;;5013580;28;20038;-59
2023/12/11 02:39:56;;;;;;;15.85;9.05;;;;;;;;;;5013698;28;20022;-59
2023/12/11 02:42:22;;;;;;;15.07;8.18;;;;;;;;;;5013809;28;20196;-59
2023/12/11 02:44:47;;;;;;;8.57;6.28;;;;;;;;;;5013763;28;20460;-59
2023/12/11 02:47:13;;;;;;;7.07;4.90;;;;;;;;;;4995997;28;20033;-60
2023/12/11 02:49:38;;;;;;;6.45;4.35;;;;;;;;;;5013593;28;20053;-61
2023/12/11 02:52:04;;;;;;;6.43;4.43;;;;;;;;;;5013636;28;20048;-59
2023/12/11 02:54:29;;;;;;;6.50;4.45;;;;;;;;;;5013595;28;20040;-60
2023/12/11 02:56:55;;;;;;;5.95;4.32;;;;;;;;;;4995895;28;20088;-59
2023/12/11 02:59:20;;;;;;;5.85;4.30;;;;;;;;;;4995665;28;20033;-61
2023/12/11 03:01:46;;;;;;;7.82;3.90;;;;;;;;;;5013631;28;20041;-61
2023/12/11 03:04:11;;;;;;;6.10;3.72;;;;;;;;;;5013474;28;20018;-61
2023/12/11 03:06:36;;;;;;;6.93;4.05;;;;;;;;;;5013414;28;20079;-61
2023/12/11 03:09:03;;;;;;;7.43;4.55;;;;;;;;;;5013527;28;20028;-62
2023/12/11 03:11:28;;;;;;;7.25;4.55;;;;;;;;;;5013687;28;20392;-61
2023/12/11 03:13:54;;;;;;;8.13;5.45;;;;;;;;;;5014424;28;20030;-62
2023/12/11 03:16:19;;;;;;;8.68;5.95;;;;;;;;;;4999397;28;20022;-62
2023/12/11 03:18:45;;;;;;;9.10;6.18;;;;;;;;;;4999689;28;20033;-59
2023/12/11 03:21:10;;;;;;;10.52;6.68;;;;;;;;;;5017253;28;20053;-62
2023/12/11 03:23:37;;;;;;;11.38;6.47;;;;;;;;;;5016617;28;20030;-59
2023/12/11 03:26:02;;;;;;;12.15;6.50;;;;;;;;;;5016692;28;20114;-59
2023/12/11 03:28:28;;;;;;;9.57;6.35;;;;;;;;;;5016684;28;20058;-59
2023/12/11 03:30:53;;;;;;;10.93;6.47;;;;;;;;;;4998652;28;20030;-59
2023/12/11 03:33:19;;;;;;;11.00;6.50;;;;;;;;;;4999114;28;20088;-59
2023/12/11 03:35:44;;;;;;;10.82;6.60;;;;;;;;;;5017076;28;20022;-61
2023/12/11 03:38:10;;;;;;;9.95;6.88;;;;;;;;;;4999393;28;20024;-59
2023/12/11 03:40:35;;;;;;;9.77;6.68;;;;;;;;;;5016524;28;20030;-60
2023/12/11 03:43:00;;;;;;;10.18;5.95;;;;;;;;;;5016153;28;20041;-60
2023/12/11 03:45:26;;;;;;;12.07;6.53;;;;;;;;;;4999349;28;20038;-60
2023/12/11 03:47:53;;;;;;;7.72;5.80;;;;;;;;;;5016604;28;20033;-60
2023/12/11 03:50:19;;;;;;;9.68;6.20;;;;;;;;;;5016023;28;20042;-62
2023/12/11 03:52:45;;;;;;;8.15;5.95;;;;;;;;;;5007018;23;20050;-62
2023/12/11 03:55:10;;;;;;;9.25;5.57;;;;;;;;;;4996598;28;20036;-62
2023/12/11 03:57:36;;;;;;;8.88;5.32;;;;;;;;;;4996629;28;20446;-62
2023/12/11 04:00:01;;;;;;;8.57;5.18;;;;;;;;;;5011385;28;20026;-62
2023/12/11 04:02:27;;;;;;;7.30;4.60;;;;;;;;;;4979191;28;20384;-62
2023/12/11 04:04:52;;;;;;;7.65;4.82;;;;;;;;;;4996511;28;20022;-63
2023/12/11 04:07:18;;;;;;;7.47;4.85;;;;;;;;;;4996840;28;20026;-63
2023/12/11 04:09:44;;;;;;;6.30;4.18;;;;;;;;;;4996179;28;20408;-63
2023/12/11 04:12:09;;;;;;;8.07;5.40;;;;;;;;;;4996130;28;20029;-63
2023/12/11 04:14:35;;;;;;;7.50;5.00;;;;;;;;;;4995088;28;20039;-62
2023/12/11 04:17:01;;;;;;;7.88;4.75;;;;;;;;;;4996231;28;20030;-62
2023/12/11 04:19:26;;;;;;;6.70;4.75;;;;;;;;;;4996355;28;20049;-62
2023/12/11 04:21:52;;;;;;;4.75;4.13;;;;;;;;;;4996195;28;20027;-63
2023/12/11 04:24:18;;;;;;;6.95;4.50;;;;;;;;;;4996012;28;20026;-65
2023/12/11 04:26:44;;;;;;;12.65;8.25;;;;;;;;;;4995045;28;20038;-65
2023/12/11 04:29:10;;;;;;;11.88;8.10;;;;;;;;;;5010847;28;20040;-66
2023/12/11 04:31:35;;;;;;;9.45;7.10;;;;;;;;;;4994706;28;20034;-61
2023/12/11 04:34:01;;;;;;;4.95;4.47;;;;;;;;;;4994524;28;20038;-60
2023/12/11 04:36:26;;;;;;;4.90;4.40;;;;;;;;;;4995948;28;20037;-60
2023/12/11 04:38:52;;;;;;;8.45;5.45;;;;;;;;;;4996020;28;20026;-61
2023/12/11 04:41:17;;;;;;;7.47;6.18;;;;;;;;;;4995282;28;20058;-61
2023/12/11 04:43:43;;;;;;;8.10;5.50;;;;;;;;;;4994526;28;20089;-61
2023/12/11 04:46:08;;;;;;;5.43;4.75;;;;;;;;;;4994567;28;20022;-61
2023/12/11 04:48:34;;;;;;;5.88;4.68;;;;;;;;;;4995802;28;20042;-61
2023/12/11 04:50:59;;;;;;;5.95;4.40;;;;;;;;;;4995266;28;20023;-60
2023/12/11 04:53:26;;;;;;;4.95;4.47;;;;;;;;;;5007923;28;20123;-60
2023/12/11 04:55:51;;;;;;;17.48;8.55;;;;;;;;;;5014123;28;20026;-61
2023/12/11 04:58:16;;;;;;;26.38;12.68;;;;;;;;;;5015112;28;20026;-61
2023/12/11 05:00:42;;;;;;;30.05;13.35;;;;;;;;;;5015351;28;20037;-60
2023/12/11 05:03:07;;;;;;;29.02;13.10;;;;;;;;;;5015040;28;20097;-61
2023/12/11 05:05:34;;;;;;;24.67;13.65;;;;;;;;;;5014266;28;20564;-61
2023/12/11 05:08:00;;;;;;;23.08;13.32;;;;;;;;;;5014070;28;20058;-61
2023/12/11 05:10:25;;;;;;;20.52;11.18;;;;;;;;;;4997065;28;20396;-61
2023/12/11 05:12:50;;;;;;;15.10;8.93;;;;;;;;;;5014265;28;20121;-61
2023/12/11 05:15:16;;;;;;;15.77;8.88;;;;;;;;;;5014610;28;20117;-59
2023/12/11 05:17:41;;;;;;;17.65;10.57;;;;;;;;;;5014480;28;20030;-59
2023/12/11 05:20:07;;;;;;;17.90;10.38;;;;;;;;;;5014699;28;20105;-60
2023/12/11 05:22:32;;;;;;;16.02;9.27;;;;;;;;;;5014112;28;20463;-58
2023/12/11 05:24:58;;;;;;;13.27;9.00;;;;;;;;;;5014142;28;20446;-60
2023/12/11 05:27:24;;;;;;;10.60;7.50;;;;;;;;;;4997739;28;20337;-61
2023/12/11 05:29:49;;;;;;;21.13;13.20;;;;;;;;;;4997503;28;20018;-60
2023/12/11 05:32:15;;;;;;;18.20;11.45;;;;;;;;;;4980937;28;20045;-60
2023/12/11 05:34:40;;;;;;;18.48;12.48;;;;;;;;;;4997259;28;20410;-61
2023/12/11 05:37:05;;;;;;;15.32;11.30;;;;;;;;;;4996446;28;20524;-60
2023/12/11 05:39:31;;;;;;;16.17;11.80;;;;;;;;;;4996646;28;20033;-58
2023/12/11 05:41:57;;;;;;;16.83;11.52;;;;;;;;;;5014549;28;20097;-60
2023/12/11 05:44:23;;;;;;;15.80;10.93;;;;;;;;;;5014692;28;20388;-60
2023/12/11 05:46:48;;;;;;;16.60;10.43;;;;;;;;;;4980265;28;20041;-60
2023/12/11 05:49:14;;;;;;;14.85;9.63;;;;;;;;;;4997121;28;20030;-60
2023/12/11 05:51:39;;;;;;;16.90;9.32;;;;;;;;;;5013990;28;20030;-60
2023/12/11 05:54:04;;;;;;;11.25;8.68;;;;;;;;;;5013978;28;20050;-60
2023/12/11 05:56:30;;;;;;;10.85;8.20;;;;;;;;;;4996357;28;20515;-60
2023/12/11 05:58:56;;;;;;;6.72;6.05;;;;;;;;;;5014204;28;20022;-60
2023/12/11 06:03:56;;;;;;;6.85;5.15;;;;;;;;;;5014710;23;20054;-62
2023/12/11 06:10:20;;;;;;;6.28;5.25;;;;;;;;;;5031507;28;20057;-63
2023/12/11 06:12:45;;;;;;;6.72;5.45;;;;;;;;;;5016148;28;20038;-63
2023/12/11 06:15:11;;;;;;;7.15;5.53;;;;;;;;;;5033868;28;20375;-62
2023/12/11 06:17:36;;;;;;;6.63;5.07;;;;;;;;;;5036750;22;20492;-60
2023/12/11 06:20:03;;;;;;;6.35;4.00;;;;;;;;;;4996087;28;20022;-60
2023/12/11 06:22:28;;;;;;;4.63;3.78;;;;;;;;;;5013567;28;20121;-60
2023/12/11 06:24:54;;;;;;;4.80;3.88;;;;;;;;;;5013701;28;20022;-59
2023/12/11 06:27:19;;;;;;;5.40;3.72;;;;;;;;;;5013815;28;20080;-59
2023/12/11 06:29:45;;;;;;;6.68;4.50;;;;;;;;;;5013250;28;20109;-59
2023/12/11 06:32:10;;;;;;;5.18;4.35;;;;;;;;;;5013483;28;20030;-59
2023/12/11 06:34:35;;;;;;;8.65;5.30;;;;;;;;;;5013822;28;20026;-59
2023/12/11 06:37:01;;;;;;;8.60;5.20;;;;;;;;;;5013840;28;20030;-59
2023/12/11 06:39:26;;;;;;;9.25;5.78;;;;;;;;;;5013549;28;20061;-59
2023/12/11 06:41:52;;;;;;;9.35;5.95;;;;;;;;;;4996572;28;20121;-59
2023/12/11 06:44:18;;;;;;;6.90;4.15;;;;;;;;;;5013708;28;20045;-59
2023/12/11 06:46:44;;;;;;;8.55;5.15;;;;;;;;;;5010257;28;20412;-59
2023/12/11 06:49:10;;;;;;;8.85;5.25;;;;;;;;;;4996080;28;20117;-59
2023/12/11 06:51:37;;;;;;;8.98;5.95;;;;;;;;;;4997792;28;20088;-59
2023/12/11 06:54:02;;;;;;;9.00;5.72;;;;;;;;;;5015174;28;20034;-59
2023/12/11 06:56:30;;;;;;;8.25;5.43;;;;;;;;;;5015152;28;20026;-59
2023/12/11 06:58:56;;;;;;;5.40;3.88;;;;;;;;;;5015350;28;20101;-59
2023/12/11 07:01:25;;;;;;;5.20;3.80;;;;;;;;;;5016494;28;20056;-59
2023/12/11 07:03:52;;;;;;;5.57;3.58;;;;;;;;;;5017040;28;20106;-59
2023/12/11 07:06:18;;;;;;;4.78;3.53;;;;;;;;;;5016940;28;20053;-59
2023/12/11 07:08:43;;;;;;;5.00;3.42;;;;;;;;;;4999506;28;20472;-59
2023/12/11 07:11:09;;;;;;;5.80;3.67;;;;;;;;;;4999330;28;20387;-59
2023/12/11 07:13:34;;;;;;;4.10;3.17;;;;;;;;;;5017278;28;20117;-59
2023/12/11 07:16:00;;;;;;;4.90;3.63;;;;;;;;;;5016771;28;20034;-59
2023/12/11 07:18:25;;;;;;;5.68;3.45;;;;;;;;;;5016691;28;20046;-59
2023/12/11 07:20:51;;;;;;;4.30;3.45;;;;;;;;;;5016963;28;20545;-59
2023/12/11 07:23:16;;;;;;;4.95;3.30;;;;;;;;;;5016931;28;20117;-59
2023/12/11 07:25:42;;;;;;;4.72;3.63;;;;;;;;;;5016607;28;20472;-59
2023/12/11 07:28:07;;;;;;;5.82;3.67;;;;;;;;;;4999529;28;20471;-59
2023/12/11 07:30:32;;;;;;;6.03;3.95;;;;;;;;;;5016482;28;20084;-59
2023/12/11 07:32:58;;;;;;;5.90;3.67;;;;;;;;;;5016397;28;20464;-59
2023/12/11 07:35:24;;;;;;;6.35;4.13;;;;;;;;;;5016680;28;20030;-61
2023/12/11 07:37:50;;;;;;;4.00;2.88;;;;;;;;;;5016392;28;20105;-61
2023/12/11 07:40:16;;;;;;;4.88;3.63;;;;;;;;;;5016890;28;20062;-61
2023/12/11 07:42:42;;;;;;;6.93;4.15;;;;;;;;;;5016271;28;20371;-61
2023/12/11 07:45:08;;;;;;;5.57;4.00;;;;;;;;;;5016247;28;20101;-61
2023/12/11 07:47:33;;;;;;;4.35;3.58;;;;;;;;;;5016734;28;20436;-61
2023/12/11 07:49:59;;;;;;;5.20;3.80;;;;;;;;;;5016131;28;20022;-62
2023/12/11 07:52:28;;;;;;;6.32;3.83;;;;;;;;;;5016413;28;20053;-61
2023/12/11 07:54:53;;;;;;;7.05;4.45;;;;;;;;;;5016268;28;20029;-61
2023/12/11 07:57:19;;;;;;;4.80;3.45;;;;;;;;;;4998422;28;20030;-61
2023/12/11 07:59:44;;;;;;;5.35;3.10;;;;;;;;;;5016414;28;20030;-59
2023/12/11 08:02:10;;;;;;;4.65;3.10;;;;;;;;;;5015916;28;20021;-59
2023/12/11 08:04:39;;;;;;;5.07;3.83;;;;;;;;;;4998408;28;20387;-59
2023/12/11 08:07:04;;;;;;;4.55;3.63;;;;;;;;;;5016363;28;20030;-59
2023/12/11 08:09:29;;;;;;;3.85;2.78;;;;;;;;;;4998636;28;20487;-59
2023/12/11 08:11:55;;;;;;;4.10;3.05;;;;;;;;;;5015653;28;20026;-59
2023/12/11 08:14:20;;;;;;;5.40;3.78;;;;;;;;;;5015866;28;20042;-59
2023/12/11 08:16:46;;;;;;;4.63;3.55;;;;;;;;;;5015620;28;20045;-59
2023/12/11 08:19:12;;;;;;;6.88;3.30;;;;;;;;;;5016229;28;20088;-59
2023/12/11 08:21:37;;;;;;;5.32;3.53;;;;;;;;;;5015552;28;20380;-59
2023/12/11 08:24:03;;;;;;;6.70;3.55;;;;;;;;;;5014233;28;20038;-59
2023/12/11 08:26:28;;;;;;;6.97;3.85;;;;;;;;;;5015756;28;20034;-60
2023/12/11 08:28:54;;;;;;;4.78;3.63;;;;;;;;;;5015640;28;20134;-59
2023/12/11 08:31:20;;;;;;;4.13;2.92;;;;;;;;;;4997763;28;20030;-59
2023/12/11 08:33:45;;;;;;;5.55;3.58;;;;;;;;;;4997730;28;20030;-60
2023/12/11 08:36:11;;;;;;;4.90;3.67;;;;;;;;;;4998340;28;20038;-59
2023/12/11 08:38:36;;;;;;;4.20;3.50;;;;;;;;;;5015246;28;20022;-59
2023/12/11 08:41:02;;;;;;;5.93;3.83;;;;;;;;;;5015463;28;20065;-59
2023/12/11 08:43:27;;;;;;;6.15;3.83;;;;;;;;;;5015406;28;20038;-59
2023/12/11 08:45:52;;;;;;;7.57;3.75;;;;;;;;;;4997763;28;20045;-59
2023/12/11 08:48:18;;;;;;;5.25;3.25;;;;;;;;;;5015331;28;20013;-59
2023/12/11 08:50:43;;;;;;;4.50;3.60;;;;;;;;;;5014976;28;20037;-59
2023/12/11 08:53:09;;;;;;;4.07;2.78;;;;;;;;;;5014900;28;20044;-59
2023/12/11 08:55:34;;;;;;;3.92;3.15;;;;;;;;;;5014926;28;20072;-60
2023/12/11 08:58:00;;;;;;;4.00;2.85;;;;;;;;;;5015172;28;20022;-59
2023/12/11 09:00:25;;;;;;;2.42;2.20;;;;;;;;;;4997401;28;20038;-59
2023/12/11 09:02:53;;;;;;;3.05;2.75;;;;;;;;;;4997282;28;20032;-59
2023/12/11 09:05:19;;;;;;;3.55;2.55;;;;;;;;;;4997444;28;20029;-59
2023/12/11 09:07:45;;;;;;;0.85;0.75;;;;;;;;;;5014757;28;20080;-59
2023/12/11 09:10:10;;;;;;;2.67;2.20;;;;;;;;;;5014980;28;20356;-59
2023/12/11 09:12:36;;;;;;;1.73;1.55;;;;;;;;;;5014096;28;20105;-59
2023/12/11 09:15:02;;;;;;;3.08;2.78;;;;;;;;;;5014752;28;20030;-59
2023/12/11 09:17:28;;;;;;;3.50;3.20;;;;;;;;;;5014631;28;20093;-59
2023/12/11 09:19:54;;;;;;;3.28;2.97;;;;;;;;;;5014770;28;20029;-59
2023/12/11 09:22:19;;;;;;;2.45;2.25;;;;;;;;;;5014766;28;20079;-59
2023/12/11 09:24:44;;;;;;;2.45;2.25;;;;;;;;;;5014429;28;20026;-59
2023/12/11 09:27:10;;;;;;;2.40;1.83;;;;;;;;;;5014678;28;20037;-59
2023/12/11 09:29:35;;;;;;;2.40;2.20;;;;;;;;;;5014646;28;20490;-59
2023/12/11 09:32:01;;;;;;;2.00;1.77;;;;;;;;;;5014321;28;20022;-59
2023/12/11 09:34:26;;;;;;;1.80;1.67;;;;;;;;;;5014217;28;20468;-59
2023/12/11 09:36:51;;;;;;;3.00;2.38;;;;;;;;;;5014249;28;20105;-59
2023/12/11 09:39:17;;;;;;;1.98;1.88;;;;;;;;;;5014184;28;20424;-59
2023/12/11 09:41:43;;;;;;;2.67;2.47;;;;;;;;;;5014155;28;20018;-59
2023/12/11 09:44:08;;;;;;;3.88;2.70;;;;;;;;;;5014432;28;20475;-59
2023/12/11 09:46:38;;;;;;;2.30;2.10;;;;;;;;;;5014135;28;20026;-59
2023/12/11 09:49:04;;;;;;;3.17;2.25;;;;;;;;;;5014389;28;20065;-60
2023/12/11 09:51:30;;;;;;;2.78;2.03;;;;;;;;;;5014353;28;20038;-59
2023/12/11 09:53:56;;;;;;;2.22;2.03;;;;;;;;;;5014254;28;20040;-59
2023/12/11 09:56:22;;;;;;;2.95;2.65;;;;;;;;;;5012742;28;20390;-59
2023/12/11 09:58:48;;;;;;;1.88;1.75;;;;;;;;;;5012737;28;20537;-59
2023/12/11 10:01:14;;;;;;;2.95;2.58;;;;;;;;;;5013974;28;20030;-59
2023/12/11 10:03:40;;;;;;;1.85;1.50;;;;;;;;;;4996347;28;20442;-59
2023/12/11 10:06:05;;;;;;;3.28;2.63;;;;;;;;;;5013889;28;20498;-59
2023/12/11 10:08:39;;;;;;;2.22;1.92;;;;;;;;;;5013887;28;20488;-59
2023/12/11 10:11:08;;;;;;;3.47;2.42;;;;;;;;;;5014099;28;20034;-59
2023/12/11 10:13:33;;;;;;;2.47;2.28;;;;;;;;;;5014289;28;20105;-59
2023/12/11 10:15:59;;;;;;;2.75;2.45;;;;;;;;;;4996212;28;20037;-59
2023/12/11 10:18:24;;;;;;;2.70;2.13;;;;;;;;;;4996419;28;20496;-59
2023/12/11 10:20:52;;;;;;;1.55;1.08;;;;;;;;;;4996150;28;20480;-59
2023/12/11 10:23:18;;;;;;;1.55;1.45;;;;;;;;;;5014858;28;20427;-59
2023/12/11 10:25:56;;;;;;;2.75;2.03;;;;;;;;;;5000590;28;20030;-59
2023/12/11 10:28:23;;;;;;;3.15;2.35;;;;;;;;;;5017673;28;20026;-59
2023/12/11 10:30:55;;;;;;;3.25;2.45;;;;;;;;;;5018229;28;20512;-59
2023/12/11 10:33:22;;;;;;;1.95;1.65;;;;;;;;;;5017533;28;20038;-59
2023/12/11 10:35:47;;;;;;;3.20;2.40;;;;;;;;;;5017540;28;20022;-59
2023/12/11 10:38:26;;;;;;;2.55;2.25;;;;;;;;;;5017795;28;20124;-59
2023/12/11 10:40:52;;;;;;;2.70;2.28;;;;;;;;;;5017457;28;20087;-61
2023/12/11 10:43:18;;;;;;;3.08;1.88;;;;;;;;;;5017733;28;20534;-61
2023/12/11 10:45:46;;;;;;;2.25;2.05;;;;;;;;;;5017620;28;20037;-59
2023/12/11 10:48:11;;;;;;;0.52;0.52;;;;;;;;;;5017296;28;20088;-59
2023/12/11 10:50:37;;;;;;;3.00;2.33;;;;;;;;;;5017299;28;20034;-59
2023/12/11 10:53:05;;;;;;;2.53;2.33;;;;;;;;;;5017216;28;20468;-59
2023/12/11 10:55:32;;;;;;;2.63;2.42;;;;;;;;;;5017211;28;20037;-61
2023/12/11 10:57:58;;;;;;;1.70;1.60;;;;;;;;;;5017150;28;20049;-61
2023/12/11 11:00:23;;;;;;;2.35;2.15;;;;;;;;;;5017114;28;20034;-61
2023/12/11 11:02:57;;;;;;;2.10;1.88;;;;;;;;;;5000732;28;20034;-59
2023/12/11 11:05:23;;;;;;;1.85;1.70;;;;;;;;;;5017283;28;20439;-59
2023/12/11 11:07:55;;;;;;;2.63;2.42;;;;;;;;;;5016979;28;20110;-59
2023/12/11 11:10:23;;;;;;;3.08;2.35;;;;;;;;;;5016942;28;20046;-59
2023/12/11 11:12:53;;;;;;;2.30;1.92;;;;;;;;;;4999574;28;20026;-58
2023/12/11 11:15:20;;;;;;;2.85;2.55;;;;;;;;;;5017142;28;20084;-61
2023/12/11 11:17:58;;;;;;;1.52;1.42;;;;;;;;;;5016721;28;20066;-62
2023/12/11 11:20:24;;;;;;;3.25;2.63;;;;;;;;;;5017009;28;20073;-64
2023/12/11 11:22:50;;;;;;;0.70;0.63;;;;;;;;;;5016982;28;20088;-65
2023/12/11 11:25:32;;;;;;;2.17;1.98;;;;;;;;;;5016633;28;20030;-63
2023/12/11 11:27:58;;;;;;;1.27;1.15;;;;;;;;;;5016943;28;20523;-64
2023/12/11 11:30:42;;;;;;;3.15;2.33;;;;;;;;;;5016571;28;20101;-64
2023/12/11 11:33:10;;;;;;;3.25;2.65;;;;;;;;;;5016389;28;20456;-64
2023/12/11 11:35:45;;;;;;;1.90;1.77;;;;;;;;;;4998576;28;20032;-64
2023/12/11 11:38:10;;;;;;;3.78;2.78;;;;;;;;;;5016645;28;20033;-64
2023/12/11 11:40:36;;;;;;;2.47;2.28;;;;;;;;;;5016385;28;20392;-64
2023/12/11 11:43:03;;;;;;;2.53;1.80;;;;;;;;;;5016872;28;20073;-64
2023/12/11 11:45:29;;;;;;;3.88;2.28;;;;;;;;;;5016579;28;20026;-64
2023/12/11 11:47:55;;;;;;;3.30;1.90;;;;;;;;;;5016264;28;20018;-64
2023/12/11 11:50:20;;;;;;;2.35;2.08;;;;;;;;;;5016511;28;20045;-64
2023/12/11 11:52:47;;;;;;;2.17;1.98;;;;;;;;;;5016318;28;20528;-64
2023/12/11 11:55:26;;;;;;;3.03;2.25;;;;;;;;;;5016062;28;20116;-64
2023/12/11 11:57:51;;;;;;;2.03;1.88;;;;;;;;;;5016318;28;20025;-64
2023/12/11 12:00:23;;;;;;;2.13;1.63;;;;;;;;;;5015994;28;20033;-64
2023/12/11 12:03:00;;;;;;;3.40;2.15;;;;;;;;;;4998488;28;20079;-64
2023/12/11 12:05:28;;;;;;;4.45;3.28;;;;;;;;;;4998973;28;20030;-65
2023/12/11 12:07:54;;;;;;;3.10;1.77;;;;;;;;;;5016111;28;20030;-64
2023/12/11 12:10:20;;;;;;;7.10;3.95;;;;;;;;;;4998266;28;20030;-64
2023/12/11 12:12:50;;;;;;;4.32;3.03;;;;;;;;;;4998529;28;20030;-64
2023/12/11 12:15:16;;;;;;;3.38;0.30;;;;;;;;;;5015956;28;20034;-64
2023/12/11 12:17:42;;;;;;;2.88;2.58;;;;;;;;;;5015448;28;20128;-64
2023/12/11 12:20:16;;;;;;;3.10;2.20;;;;;;;;;;5015600;28;20034;-64
2023/12/11 12:23:00;;;;;;;2.20;2.03;;;;;;;;;;5014324;28;20041;-64
2023/12/11 12:25:26;;;;;;;3.88;2.95;;;;;;;;;;5016098;28;20372;-64
2023/12/11 12:27:52;;;;;;;3.45;2.15;;;;;;;;;;5014310;28;20077;-64
2023/12/11 12:30:19;;;;;;;2.15;1.80;;;;;;;;;;5015439;28;20029;-64
2023/12/11 12:32:46;;;;;;;1.15;1.05;;;;;;;;;;5015328;28;20030;-64
2023/12/11 12:35:11;;;;;;;3.42;2.78;;;;;;;;;;4997746;28;20018;-64
2023/12/11 12:37:37;;;;;;;3.13;2.85;;;;;;;;;;5015567;28;20044;-64
2023/12/11 12:40:06;;;;;;;4.18;3.25;;;;;;;;;;5015281;28;20021;-64
2023/12/11 12:42:32;;;;;;;3.15;2.85;;;;;;;;;;5015439;28;20460;-64
2023/12/11 12:44:57;;;;;;;2.75;2.25;;;;;;;;;;5015218;28;20030;-64
2023/12/11 12:47:23;;;;;;;4.38;3.08;;;;;;;;;;5014733;28;20029;-64
2023/12/11 12:49:48;;;;;;;2.88;2.58;;;;;;;;;;5015082;28;20491;-64
2023/12/11 12:52:23;;;;;;;3.20;2.90;;;;;;;;;;4997433;28;20396;-64
2023/12/11 12:54:49;;;;;;;3.35;2.78;;;;;;;;;;5015194;28;20483;-64
2023/12/11 12:57:15;;;;;;;4.82;3.90;;;;;;;;;;5014948;28;20026;-64
2023/12/11 12:59:40;;;;;;;4.07;3.67;;;;;;;;;;5014900;28;20476;-64
2023/12/11 13:02:10;;;;;;;4.22;3.78;;;;;;;;;;5014849;28;20029;-64
2023/12/11 13:04:47;;;;;;;3.05;2.80;;;;;;;;;;5015083;28;20034;-64
2023/12/11 13:07:12;;;;;;;4.30;3.45;;;;;;;;;;4997250;28;20034;-64
2023/12/11 13:09:37;;;;;;;2.83;2.50;;;;;;;;;;5015237;28;20040;-64
2023/12/11 13:12:04;;;;;;;3.42;3.15;;;;;;;;;;4997021;28;20038;-64
2023/12/11 13:14:29;;;;;;;4.47;3.65;;;;;;;;;;5013312;28;20438;-64
2023/12/11 13:16:55;;;;;;;4.65;4.22;;;;;;;;;;5014638;28;20057;-64
2023/12/11 13:19:21;;;;;;;5.72;4.35;;;;;;;;;;5014380;28;20451;-64
2023/12/11 13:21:46;;;;;;;5.25;4.15;;;;;;;;;;5014788;28;20060;-64
2023/12/11 13:24:14;;;;;;;1.98;1.13;;;;;;;;;;5014387;28;20089;-64
2023/12/11 13:26:39;;;;;;;3.75;2.65;;;;;;;;;;5015000;28;20030;-64
2023/12/11 13:29:05;;;;;;;2.53;2.28;;;;;;;;;;5014664;28;20026;-64
2023/12/11 13:31:30;;;;;;;5.25;4.18;;;;;;;;;;4996685;28;20065;-64
2023/12/11 13:33:55;;;;;;;4.00;3.33;;;;;;;;;;5014218;28;20030;-64
2023/12/11 13:36:21;;;;;;;6.20;3.80;;;;;;;;;;4996654;28;20036;-65
2023/12/11 13:38:47;;;;;;;5.45;4.10;;;;;;;;;;5014256;28;20076;-65
2023/12/11 13:41:13;;;;;;;6.28;4.20;;;;;;;;;;5012955;28;20476;-65
2023/12/11 13:43:38;;;;;;;5.85;5.28;;;;;;;;;;5014208;28;20026;-64
2023/12/11 13:46:05;;;;;;;6.50;4.57;;;;;;;;;;5014033;28;20033;-64
2023/12/11 13:48:30;;;;;;;4.90;4.22;;;;;;;;;;5013859;28;20048;-64
2023/12/11 13:50:56;;;;;;;5.00;3.40;;;;;;;;;;5013456;28;20030;-64
2023/12/11 13:53:21;;;;;;;4.45;3.80;;;;;;;;;;5012374;28;20391;-64
2023/12/11 13:55:47;;;;;;;5.10;3.92;;;;;;;;;;5012159;28;20113;-64
2023/12/11 13:58:12;;;;;;;2.25;2.08;;;;;;;;;;5011912;28;20034;-64
2023/12/11 14:00:38;;;;;;;5.22;4.13;;;;;;;;;;5012149;28;20037;-64
2023/12/11 14:03:03;;;;;;;5.90;5.05;;;;;;;;;;5012097;28;20121;-62
2023/12/11 14:05:29;;;;;;;6.13;4.22;;;;;;;;;;5012147;28;20030;-62
2023/12/11 14:07:55;;;;;;;6.05;5.10;;;;;;;;;;5013874;28;20448;-62
2023/12/11 14:10:20;;;;;;;3.53;3.17;;;;;;;;;;5014138;28;20045;-62
2023/12/11 14:12:45;;;;;;;7.88;5.35;;;;;;;;;;5013768;28;20030;-63
2023/12/11 14:15:11;;;;;;;5.75;4.97;;;;;;;;;;5013787;28;20030;-62
2023/12/11 14:17:36;;;;;;;7.30;5.40;;;;;;;;;;5013633;28;20129;-62
2023/12/11 14:20:02;;;;;;;6.07;5.20;;;;;;;;;;5013657;28;20384;-62
2023/12/11 14:22:32;;;;;;;7.03;5.07;;;;;;;;;;5013755;28;20503;-63
2023/12/11 14:24:57;;;;;;;5.05;4.57;;;;;;;;;;5013697;28;20038;-63
2023/12/11 14:27:24;;;;;;;5.50;4.97;;;;;;;;;;5013587;28;20037;-63
2023/12/11 14:29:50;;;;;;;6.57;5.40;;;;;;;;;;5013291;28;20033;-63
2023/12/11 14:32:16;;;;;;;5.20;4.57;;;;;;;;;;5013823;28;20044;-63
2023/12/11 14:34:48;;;;;;;5.93;4.72;;;;;;;;;;5012501;28;20472;-59
2023/12/11 14:37:16;;;;;;;8.15;4.80;;;;;;;;;;5012825;28;20428;-62